createdAt,value
2023-05-19T00:01:48.309Z,10.63
2023-05-19T00:04:16.932Z,10.62
2023-05-19T00:06:51.091Z,10.63
2023-05-19T00:09:19.130Z,10.63
2023-05-19T00:11:47.181Z,10.63
2023-05-19T00:14:15.249Z,10.64
2023-05-19T00:16:43.473Z,10.63
2023-05-19T00:19:11.384Z,10.61
2023-05-19T00:21:39.379Z,10.58
2023-05-19T00:24:07.680Z,10.55
2023-05-19T00:26:35.978Z,10.51
2023-05-19T00:29:06.253Z,10.47
2023-05-19T00:31:34.428Z,10.44
2023-05-19T00:34:03.189Z,10.36
2023-05-19T00:36:31.195Z,10.33
2023-05-19T00:38:59.019Z,10.31
2023-05-19T00:41:27.172Z,10.28
2023-05-19T00:43:55.446Z,10.29
2023-05-19T00:46:23.775Z,10.30
2023-05-19T00:48:51.785Z,10.33
2023-05-19T00:51:20.248Z,10.33
2023-05-19T00:53:51.072Z,10.33
2023-05-19T00:56:19.257Z,10.31
2023-05-19T00:58:48.208Z,10.29
2023-05-19T01:01:19.094Z,10.34
2023-05-19T01:03:48.838Z,10.33
2023-05-19T01:06:19.275Z,10.38
2023-05-19T01:08:47.821Z,10.39
2023-05-19T01:11:15.793Z,10.44
2023-05-19T01:13:44.364Z,10.49
2023-05-19T01:16:33.766Z,10.49
2023-05-19T01:19:40.368Z,10.47
2023-05-19T01:22:27.111Z,10.47
2023-05-19T01:25:00.898Z,10.47
2023-05-19T01:27:47.265Z,10.44
2023-05-19T01:30:36.129Z,10.41
2023-05-19T01:33:07.333Z,10.42
2023-05-19T01:35:38.058Z,10.47
2023-05-19T01:38:09.286Z,10.49
2023-05-19T01:40:39.613Z,10.51
2023-05-19T01:43:09.508Z,10.52
2023-05-19T01:45:38.238Z,10.49
2023-05-19T01:48:09.892Z,10.45
2023-05-19T01:50:41.609Z,10.46
2023-05-19T01:53:10.729Z,10.46
2023-05-19T01:55:50.307Z,10.44
2023-05-19T01:58:37.905Z,10.43
2023-05-19T02:01:27.283Z,10.40
2023-05-19T02:04:18.581Z,10.37
2023-05-19T02:06:46.786Z,10.38
2023-05-19T02:09:26.092Z,10.40
2023-05-19T02:12:06.351Z,10.45
2023-05-19T02:14:46.404Z,10.49
2023-05-19T02:17:16.191Z,10.52
2023-05-19T02:19:44.972Z,10.54
2023-05-19T02:22:12.947Z,10.56
2023-05-19T02:24:41.642Z,10.60
2023-05-19T02:27:09.891Z,10.61
2023-05-19T02:29:37.791Z,10.60
2023-05-19T02:32:07.169Z,10.62
2023-05-19T02:34:35.180Z,10.59
2023-05-19T02:37:07.646Z,10.55
2023-05-19T02:39:35.498Z,10.53
2023-05-19T02:42:04.101Z,10.48
2023-05-19T02:44:32.162Z,10.48
2023-05-19T02:46:59.988Z,10.48
2023-05-19T02:49:31.067Z,10.47
2023-05-19T02:51:58.942Z,10.47
2023-05-19T02:54:26.796Z,10.48
2023-05-19T02:56:54.709Z,10.50
2023-05-19T02:59:25.030Z,10.51
2023-05-19T03:01:55.610Z,10.53
2023-05-19T03:04:23.923Z,10.57
2023-05-19T03:06:51.862Z,10.60
2023-05-19T03:09:20.340Z,10.58
2023-05-19T03:11:48.156Z,10.59
2023-05-19T03:14:15.983Z,10.57
2023-05-19T03:16:46.949Z,10.51
2023-05-19T03:19:15.702Z,10.50
2023-05-19T03:22:08.777Z,10.43
2023-05-19T03:24:36.683Z,10.43
2023-05-19T03:27:28.143Z,10.45
2023-05-19T03:30:21.167Z,10.51
2023-05-19T03:33:07.878Z,10.49
2023-05-19T03:35:36.048Z,10.51
2023-05-19T03:38:04.302Z,10.55
2023-05-19T03:40:32.543Z,10.59
2023-05-19T03:43:07.957Z,10.60
2023-05-19T03:45:40.133Z,10.62
2023-05-19T03:48:26.892Z,10.64
2023-05-19T03:51:13.555Z,10.65
2023-05-19T03:53:41.528Z,10.63
2023-05-19T03:56:13.901Z,10.63
2023-05-19T03:58:43.618Z,10.64
2023-05-19T04:01:12.060Z,10.63
2023-05-19T04:03:40.022Z,10.61
2023-05-19T04:06:10.923Z,10.61
2023-05-19T04:08:40.081Z,10.64
2023-05-19T04:11:08.058Z,10.66
2023-05-19T04:13:37.017Z,10.68
2023-05-19T04:16:05.460Z,10.68
2023-05-19T04:18:36.627Z,10.70
2023-05-19T04:21:05.822Z,10.75
2023-05-19T04:23:33.808Z,10.79
2023-05-19T04:26:02.632Z,10.82
2023-05-19T04:28:30.556Z,10.81
2023-05-19T04:30:58.884Z,10.84
2023-05-19T04:33:29.282Z,10.90
2023-05-19T04:35:58.466Z,10.93
2023-05-19T04:38:28.331Z,10.97
2023-05-19T04:40:56.477Z,10.99
2023-05-19T04:43:25.464Z,10.97
2023-05-19T04:45:53.321Z,10.94
2023-05-19T04:48:21.931Z,10.95
2023-05-19T04:50:52.004Z,10.93
2023-05-19T04:53:22.276Z,10.96
2023-05-19T04:55:51.239Z,10.95
2023-05-19T04:58:19.736Z,10.96
2023-05-19T05:00:50.343Z,10.97
2023-05-19T05:03:18.997Z,10.99
2023-05-19T05:05:46.889Z,11.00
2023-05-19T05:08:16.367Z,11.05
2023-05-19T05:10:45.058Z,11.08
2023-05-19T05:13:13.542Z,11.12
2023-05-19T05:15:42.099Z,11.16
2023-05-19T05:18:11.074Z,11.20
2023-05-19T05:20:39.500Z,11.22
2023-05-19T05:23:09.699Z,11.26
2023-05-19T05:25:39.080Z,11.25
2023-05-19T05:28:07.171Z,11.25
2023-05-19T05:30:37.034Z,11.30
2023-05-19T05:33:06.536Z,11.33
2023-05-19T05:35:38.472Z,11.34
2023-05-19T05:38:08.324Z,11.38
2023-05-19T05:40:37.279Z,11.43
2023-05-19T05:43:05.459Z,11.48
2023-05-19T05:45:35.738Z,11.55
2023-05-19T05:48:04.370Z,11.64
2023-05-19T05:50:33.015Z,11.71
2023-05-19T05:53:01.839Z,11.78
2023-05-19T05:55:30.372Z,11.86
2023-05-19T05:58:02.231Z,11.97
2023-05-19T06:00:30.896Z,12.05
2023-05-19T06:02:59.612Z,12.13
2023-05-19T06:05:27.792Z,12.20
2023-05-19T06:07:56.215Z,12.27
2023-05-19T06:10:26.627Z,12.37
2023-05-19T06:12:54.962Z,12.49
2023-05-19T06:15:23.053Z,12.57
2023-05-19T06:18:00.624Z,12.65
2023-05-19T06:20:29.442Z,12.73
2023-05-19T06:22:58.404Z,12.82
2023-05-19T06:25:28.756Z,12.89
2023-05-19T06:27:57.152Z,12.98
2023-05-19T06:30:25.228Z,13.06
2023-05-19T06:33:21.011Z,13.13
2023-05-19T06:35:48.918Z,13.19
2023-05-19T06:38:18.286Z,13.27
2023-05-19T06:40:46.110Z,13.36
2023-05-19T06:43:14.994Z,13.48
2023-05-19T06:45:56.574Z,13.60
2023-05-19T06:48:26.512Z,13.70
2023-05-19T06:50:54.623Z,13.79
2023-05-19T06:53:22.564Z,13.85
2023-05-19T06:55:59.361Z,13.91
2023-05-19T06:58:28.892Z,13.94
2023-05-19T07:00:57.232Z,13.98
2023-05-19T07:03:27.310Z,14.03
2023-05-19T07:05:55.949Z,14.11
2023-05-19T07:08:24.262Z,14.22
2023-05-19T07:10:52.154Z,14.29
2023-05-19T07:13:20.168Z,14.34
2023-05-19T07:15:49.332Z,14.37
2023-05-19T07:18:18.514Z,14.41
2023-05-19T07:20:46.558Z,14.48
2023-05-19T07:23:17.133Z,14.57
2023-05-19T07:25:47.262Z,14.69
2023-05-19T07:28:15.220Z,14.77
2023-05-19T07:30:43.309Z,14.87
2023-05-19T07:33:11.141Z,14.94
2023-05-19T07:35:39.867Z,14.99
2023-05-19T07:38:07.675Z,15.05
2023-05-19T07:40:35.587Z,15.07
2023-05-19T07:43:03.768Z,15.04
2023-05-19T07:45:31.914Z,15.00
2023-05-19T07:48:00.002Z,14.97
2023-05-19T07:50:27.890Z,14.93
2023-05-19T07:52:56.131Z,14.88
2023-05-19T07:55:23.914Z,14.93
2023-05-19T07:57:51.866Z,15.03
2023-05-19T08:00:20.452Z,15.13
2023-05-19T08:02:48.609Z,15.22
2023-05-19T08:05:16.615Z,15.25
2023-05-19T08:07:44.502Z,15.31
2023-05-19T08:10:12.379Z,15.40
2023-05-19T08:12:40.310Z,15.44
2023-05-19T08:15:09.268Z,15.46
2023-05-19T08:17:37.449Z,15.55
2023-05-19T08:20:08.668Z,15.62
2023-05-19T08:22:36.924Z,15.70
2023-05-19T08:25:05.689Z,15.76
2023-05-19T08:27:33.741Z,15.79
2023-05-19T08:30:02.490Z,15.83
2023-05-19T08:32:30.384Z,15.90
2023-05-19T08:34:58.908Z,15.99
2023-05-19T08:37:26.702Z,16.10
2023-05-19T08:39:54.596Z,16.15
2023-05-19T08:42:22.943Z,16.21
2023-05-19T08:44:51.509Z,16.30
2023-05-19T08:47:20.082Z,16.42
2023-05-19T08:49:52.854Z,16.56
2023-05-19T08:52:50.153Z,16.69
2023-05-19T08:55:45.381Z,16.83
2023-05-19T08:58:15.696Z,16.95
2023-05-19T09:00:44.551Z,17.05
2023-05-19T09:05:46.791Z,17.25
2023-05-19T09:08:15.056Z,17.38
2023-05-19T09:10:43.000Z,17.51
2023-05-19T09:13:11.092Z,17.66
2023-05-19T09:15:41.315Z,17.81
2023-05-19T09:18:13.205Z,17.95
2023-05-19T09:20:43.717Z,18.03
2023-05-19T09:23:18.261Z,18.08
2023-05-19T09:25:53.228Z,18.08
2023-05-19T09:28:33.311Z,18.09
2023-05-19T09:31:11.210Z,18.13
2023-05-19T09:33:46.092Z,18.15
2023-05-19T09:36:14.268Z,18.18
2023-05-19T09:38:42.712Z,18.25
2023-05-19T09:41:10.657Z,18.29
2023-05-19T09:43:38.441Z,18.31
2023-05-19T09:46:09.206Z,18.32
2023-05-19T09:48:38.821Z,18.34
2023-05-19T09:51:10.402Z,18.37
2023-05-19T09:53:39.291Z,18.39
2023-05-19T09:56:08.876Z,18.45
2023-05-19T09:58:37.427Z,18.54
2023-05-19T10:01:06.105Z,18.66
2023-05-19T10:03:35.145Z,18.73
2023-05-19T10:06:09.334Z,18.80
2023-05-19T10:08:37.806Z,18.88
2023-05-19T10:11:06.863Z,19.00
2023-05-19T10:13:38.714Z,19.07
2023-05-19T10:16:08.707Z,19.19
2023-05-19T10:18:39.894Z,19.29
2023-05-19T10:21:09.706Z,19.31
2023-05-19T10:23:38.467Z,19.33
2023-05-19T10:26:07.637Z,19.36
2023-05-19T10:28:39.623Z,19.38
2023-05-19T10:31:11.581Z,19.41
2023-05-19T10:33:39.474Z,19.50
2023-05-19T10:36:25.778Z,19.57
2023-05-19T10:39:01.105Z,19.62
2023-05-19T10:41:47.202Z,19.72
2023-05-19T10:44:31.851Z,19.80
2023-05-19T10:46:59.834Z,19.84
2023-05-19T10:49:27.701Z,19.85
2023-05-19T10:51:57.227Z,19.95
2023-05-19T10:54:40.977Z,20.12
2023-05-19T10:57:18.253Z,20.34
2023-05-19T10:59:46.422Z,20.48
2023-05-19T11:02:43.260Z,20.59
2023-05-19T11:05:18.268Z,20.77
2023-05-19T11:08:02.432Z,20.95
2023-05-19T11:10:30.642Z,21.07
2023-05-19T11:12:58.873Z,21.10
2023-05-19T11:15:27.867Z,21.14
2023-05-19T11:17:56.215Z,21.16
2023-05-19T11:20:26.302Z,21.13
2023-05-19T11:23:14.555Z,21.06
2023-05-19T11:25:47.247Z,21.00
2023-05-19T11:28:26.245Z,20.96
2023-05-19T11:30:57.547Z,20.95
2023-05-19T11:33:30.058Z,20.95
2023-05-19T11:35:58.584Z,20.95
2023-05-19T11:38:30.271Z,21.00
2023-05-19T11:40:58.469Z,21.07
2023-05-19T11:43:26.581Z,21.12
2023-05-19T11:45:55.348Z,21.22
2023-05-19T11:48:25.306Z,21.42
2023-05-19T11:50:53.571Z,21.60
2023-05-19T11:53:21.601Z,21.73
2023-05-19T11:55:50.153Z,21.86
2023-05-19T11:58:18.598Z,21.99
2023-05-19T12:00:48.053Z,22.03
2023-05-19T12:03:22.154Z,22.03
2023-05-19T12:05:52.633Z,22.02
2023-05-19T12:08:21.697Z,21.99
2023-05-19T12:10:51.049Z,21.93
2023-05-19T12:13:20.124Z,21.85
2023-05-19T12:15:50.524Z,21.78
2023-05-19T12:18:19.576Z,21.65
2023-05-19T12:20:47.624Z,21.52
2023-05-19T12:23:15.908Z,21.41
2023-05-19T12:25:43.946Z,21.31
2023-05-19T12:28:12.249Z,21.24
2023-05-19T12:30:41.526Z,21.13
2023-05-19T12:33:10.012Z,21.03
2023-05-19T12:35:38.026Z,20.95
2023-05-19T12:38:09.348Z,20.87
2023-05-19T12:40:42.434Z,20.78
2023-05-19T12:43:24.927Z,20.60
2023-05-19T12:45:53.387Z,20.41
2023-05-19T12:48:25.851Z,20.20
2023-05-19T12:50:56.723Z,20.05
2023-05-19T12:53:27.986Z,19.94
2023-05-19T12:55:55.838Z,19.89
2023-05-19T12:58:24.396Z,19.89
2023-05-19T13:01:00.127Z,19.92
2023-05-19T13:03:28.394Z,19.99
2023-05-19T13:05:56.386Z,20.07
2023-05-19T13:08:24.843Z,20.14
2023-05-19T13:10:52.874Z,20.21
2023-05-19T13:13:22.102Z,20.27
2023-05-19T13:15:49.967Z,20.32
2023-05-19T13:18:18.220Z,20.39
2023-05-19T13:20:47.373Z,20.47
2023-05-19T13:23:16.669Z,20.56
2023-05-19T13:25:44.685Z,20.62
2023-05-19T13:28:12.999Z,20.69
2023-05-19T13:30:43.516Z,20.78
2023-05-19T13:33:12.080Z,20.90
2023-05-19T13:35:40.321Z,20.99
2023-05-19T13:38:10.631Z,21.04
2023-05-19T13:40:40.339Z,21.08
2023-05-19T13:43:09.082Z,21.10
2023-05-19T13:45:37.257Z,21.13
2023-05-19T13:48:07.452Z,21.09
2023-05-19T13:50:36.104Z,21.05
2023-05-19T13:53:04.101Z,21.03
2023-05-19T13:55:34.064Z,21.04
2023-05-19T13:58:02.441Z,21.05
2023-05-19T14:00:32.455Z,21.07
2023-05-19T14:03:00.917Z,21.09
2023-05-19T14:05:29.313Z,21.13
2023-05-19T14:07:58.039Z,21.20
2023-05-19T14:10:26.156Z,21.26
2023-05-19T14:13:18.382Z,21.33
2023-05-19T14:15:42.049Z,21.40
2023-05-19T14:18:10.222Z,21.47
2023-05-19T14:20:38.163Z,21.52
2023-05-19T14:23:06.451Z,21.53
2023-05-19T14:25:34.298Z,21.51
2023-05-19T14:28:02.272Z,21.47
2023-05-19T14:30:30.531Z,21.45
2023-05-19T14:32:58.544Z,21.43
2023-05-19T14:35:27.037Z,21.42
2023-05-19T14:38:02.174Z,21.42
2023-05-19T14:40:33.360Z,21.41
2023-05-19T14:43:01.755Z,21.40
2023-05-19T14:45:33.810Z,21.39
2023-05-19T14:48:12.163Z,21.37
2023-05-19T14:50:40.476Z,21.34
2023-05-19T14:53:08.415Z,21.32
2023-05-19T14:55:36.763Z,21.31
2023-05-19T14:58:10.175Z,21.30
2023-05-19T15:01:14.476Z,21.28
2023-05-19T15:03:47.061Z,21.23
2023-05-19T15:06:15.217Z,21.23
2023-05-19T15:08:43.223Z,21.22
2023-05-19T15:11:11.272Z,21.22
2023-05-19T15:13:42.008Z,21.23
2023-05-19T15:16:17.314Z,21.23
2023-05-19T15:18:46.095Z,21.22
2023-05-19T15:21:14.034Z,21.21
2023-05-19T15:23:41.954Z,21.20
2023-05-19T15:28:55.381Z,21.08
2023-05-19T15:31:23.391Z,21.03
2023-05-19T15:33:51.518Z,21.00
2023-05-19T15:36:19.757Z,20.94
2023-05-19T15:38:47.620Z,20.89
2023-05-19T15:41:17.473Z,20.82
2023-05-19T15:43:46.716Z,20.80
2023-05-19T15:46:16.042Z,20.79
2023-05-19T15:48:44.232Z,20.78
2023-05-19T15:51:12.277Z,20.77
2023-05-19T15:53:40.698Z,20.75
2023-05-19T15:56:09.978Z,20.73
2023-05-19T15:58:38.008Z,20.72
2023-05-19T16:01:09.822Z,20.70
2023-05-19T16:03:40.042Z,20.70
2023-05-19T16:06:08.000Z,20.70
2023-05-19T16:08:35.991Z,20.68
2023-05-19T16:11:04.243Z,20.63
2023-05-19T16:13:35.597Z,20.59
2023-05-19T16:16:04.034Z,20.60
2023-05-19T16:18:31.994Z,20.61
2023-05-19T16:20:59.744Z,20.60
2023-05-19T16:23:27.614Z,20.60
2023-05-19T16:25:57.505Z,20.58
2023-05-19T16:28:25.699Z,20.55
2023-05-19T16:31:00.344Z,20.52
2023-05-19T16:33:34.449Z,20.51
2023-05-19T16:36:02.980Z,20.50
2023-05-19T16:38:31.027Z,20.49
2023-05-19T16:40:58.922Z,20.47
2023-05-19T16:43:26.923Z,20.46
2023-05-19T16:45:54.788Z,20.44
2023-05-19T16:48:22.737Z,20.41
2023-05-19T16:50:50.850Z,20.36
2023-05-19T16:53:18.951Z,20.32
2023-05-19T16:55:47.071Z,20.27
2023-05-19T16:58:15.298Z,20.20
2023-05-19T17:00:43.589Z,20.16
2023-05-19T17:03:11.822Z,20.14
2023-05-19T17:05:42.049Z,20.10
2023-05-19T17:08:10.330Z,20.06
2023-05-19T17:10:39.434Z,20.03
2023-05-19T17:13:07.360Z,19.99
2023-05-19T17:15:35.750Z,19.97
2023-05-19T17:18:05.631Z,19.94
2023-05-19T17:20:34.060Z,19.93
2023-05-19T17:23:02.212Z,19.93
2023-05-19T17:25:32.941Z,19.92
2023-05-19T17:28:01.064Z,19.91
2023-05-19T17:30:29.108Z,19.89
2023-05-19T17:32:59.136Z,19.87
2023-05-19T17:35:28.555Z,19.85
2023-05-19T17:37:58.042Z,19.84
2023-05-19T17:40:26.227Z,19.83
2023-05-19T17:42:54.088Z,19.81
2023-05-19T17:45:24.379Z,19.79
2023-05-19T17:47:52.456Z,19.75
2023-05-19T17:50:20.280Z,19.69
2023-05-19T17:52:48.882Z,19.60
2023-05-19T17:55:17.100Z,19.47
2023-05-19T17:57:46.378Z,19.28
2023-05-19T18:00:15.168Z,19.10
2023-05-19T18:02:43.853Z,18.95
2023-05-19T18:05:12.896Z,18.81
2023-05-19T18:07:42.530Z,18.67
2023-05-19T18:10:11.961Z,18.56
2023-05-19T18:12:42.957Z,18.45
2023-05-19T18:15:11.928Z,18.33
2023-05-19T18:17:39.854Z,18.22
2023-05-19T18:20:08.299Z,18.10
2023-05-19T18:22:36.574Z,18.07
2023-05-19T18:25:05.065Z,17.95
2023-05-19T18:27:33.566Z,17.86
2023-05-19T18:30:01.607Z,17.81
2023-05-19T18:32:29.673Z,17.76
2023-05-19T18:35:00.169Z,17.72
2023-05-19T18:37:28.662Z,17.67
2023-05-19T18:39:56.712Z,17.64
2023-05-19T18:45:38.478Z,17.58
2023-05-19T18:48:08.045Z,17.55
2023-05-19T18:50:36.516Z,17.53
2023-05-19T18:53:04.492Z,17.50
2023-05-19T18:55:32.449Z,17.45
2023-05-19T18:58:01.321Z,17.43
2023-05-19T19:00:29.477Z,17.40
2023-05-19T19:03:00.466Z,17.35
2023-05-19T19:05:28.897Z,17.29
2023-05-19T19:07:57.572Z,17.20
2023-05-19T19:10:25.646Z,17.17
2023-05-19T19:12:53.549Z,17.14
2023-05-19T19:15:21.624Z,17.13
2023-05-19T19:17:49.719Z,17.11
2023-05-19T19:20:17.840Z,17.08
2023-05-19T19:22:45.827Z,17.08
2023-05-19T19:25:13.954Z,17.07
2023-05-19T19:27:41.822Z,17.06
2023-05-19T19:30:09.846Z,17.06
2023-05-19T19:32:37.846Z,17.08
2023-05-19T19:35:06.092Z,17.09
2023-05-19T19:37:33.928Z,17.07
2023-05-19T19:40:01.957Z,17.05
2023-05-19T19:42:31.818Z,17.06
2023-05-19T19:45:00.039Z,17.08
2023-05-19T19:47:27.960Z,17.08
2023-05-19T19:50:02.691Z,17.06
2023-05-19T19:52:38.403Z,17.03
2023-05-19T19:55:06.871Z,17.01
2023-05-19T19:57:34.950Z,16.96
2023-05-19T20:00:08.315Z,16.94
2023-05-19T20:02:45.626Z,16.87
2023-05-19T20:05:23.573Z,16.84
2023-05-19T20:07:53.014Z,16.81
2023-05-19T20:10:24.757Z,16.77
2023-05-19T20:12:52.899Z,16.74
2023-05-19T20:15:20.978Z,16.72
2023-05-19T20:17:49.772Z,16.67
2023-05-19T20:20:17.665Z,16.64
2023-05-19T20:22:46.097Z,16.60
2023-05-19T20:25:15.199Z,16.55
2023-05-19T20:28:09.235Z,16.49
2023-05-19T20:30:37.373Z,16.46
2023-05-19T20:33:05.456Z,16.43
2023-05-19T20:35:33.392Z,16.37
2023-05-19T20:38:01.602Z,16.34
2023-05-19T20:40:29.913Z,16.29
2023-05-19T20:42:57.932Z,16.27
2023-05-19T20:45:25.877Z,16.24
2023-05-19T20:47:53.760Z,16.21
2023-05-19T20:50:21.758Z,16.18
2023-05-19T20:52:52.725Z,16.14
2023-05-19T20:55:20.921Z,16.11
2023-05-19T20:57:48.787Z,16.12
2023-05-19T21:00:17.143Z,16.10
2023-05-19T21:02:45.267Z,16.06
2023-05-19T21:05:13.360Z,16.03
2023-05-19T21:07:41.433Z,16.00
2023-05-19T21:10:09.826Z,15.96
2023-05-19T21:12:38.149Z,15.96
2023-05-19T21:15:06.576Z,15.92
2023-05-19T21:17:34.509Z,15.89
2023-05-19T21:20:03.737Z,15.86
2023-05-19T21:22:31.900Z,15.84
2023-05-19T21:24:59.830Z,15.83
2023-05-19T21:27:27.881Z,15.83
2023-05-19T21:29:55.858Z,15.80
2023-05-19T21:32:23.824Z,15.80
2023-05-19T21:34:51.731Z,15.80
2023-05-19T21:37:21.172Z,15.81
2023-05-19T21:39:49.130Z,15.80
2023-05-19T21:42:17.016Z,15.81
2023-05-19T21:44:45.065Z,15.80
2023-05-19T21:47:13.061Z,15.78
2023-05-19T21:49:41.302Z,15.77
2023-05-19T21:52:09.797Z,15.77
2023-05-19T21:54:37.875Z,15.75
2023-05-19T21:57:06.166Z,15.75
2023-05-19T21:59:34.057Z,15.72
2023-05-19T22:02:02.266Z,15.69
2023-05-19T22:04:33.736Z,15.68
2023-05-19T22:07:01.591Z,15.65
2023-05-19T22:09:29.710Z,15.62
2023-05-19T22:11:57.634Z,15.60
2023-05-19T22:14:26.013Z,15.59
2023-05-19T22:16:54.056Z,15.55
2023-05-19T22:19:21.994Z,15.54
2023-05-19T22:21:51.890Z,15.52
2023-05-19T22:24:26.689Z,15.49
2023-05-19T22:26:54.469Z,15.45
2023-05-19T22:29:22.289Z,15.45
2023-05-19T22:31:50.097Z,15.42
2023-05-19T22:34:18.110Z,15.40
2023-05-19T22:36:46.252Z,15.36
2023-05-19T22:39:14.025Z,15.33
2023-05-19T22:41:42.073Z,15.33
2023-05-19T22:44:11.375Z,15.31
2023-05-19T22:46:39.397Z,15.28
2023-05-19T22:49:07.185Z,15.28
2023-05-19T22:51:35.101Z,15.29
2023-05-19T22:54:03.068Z,15.27
2023-05-19T22:56:30.986Z,15.24
2023-05-19T22:58:59.504Z,15.22
2023-05-19T23:01:27.566Z,15.19
2023-05-19T23:03:55.685Z,15.17
2023-05-19T23:06:23.890Z,15.17
2023-05-19T23:09:02.233Z,15.15
2023-05-19T23:11:30.419Z,15.12
2023-05-19T23:13:58.282Z,15.10
2023-05-19T23:16:26.196Z,15.08
2023-05-19T23:18:54.109Z,15.04
2023-05-19T23:21:22.025Z,15.00
2023-05-19T23:23:50.397Z,14.99
2023-05-19T23:26:18.364Z,14.99
2023-05-19T23:28:46.469Z,14.96
2023-05-19T23:31:14.481Z,14.95
2023-05-19T23:33:42.485Z,14.94
2023-05-19T23:36:10.865Z,14.92
2023-05-19T23:38:38.920Z,14.89
2023-05-19T23:41:06.827Z,14.86
2023-05-19T23:43:34.813Z,14.85
2023-05-19T23:46:02.937Z,14.84
2023-05-19T23:48:31.482Z,14.85
2023-05-19T23:50:59.527Z,14.83
2023-05-19T23:53:27.449Z,14.79
2023-05-19T23:55:56.429Z,14.76
2023-05-19T23:58:25.299Z,14.73
